createdAt,value
2022-09-23T00:02:20.860Z,10.33
2022-09-23T00:04:50.859Z,12.50
2022-09-23T00:07:21.662Z,17.30
2022-09-23T00:09:55.420Z,10.47
2022-09-23T00:12:25.554Z,10.07
2022-09-23T00:14:55.879Z,11.30
2022-09-23T00:17:27.294Z,9.30
2022-09-23T00:19:57.867Z,11.17
2022-09-23T00:22:28.016Z,10.63
2022-09-23T00:25:00.824Z,12.00
2022-09-23T00:27:33.954Z,13.80
2022-09-23T00:30:04.914Z,9.10
2022-09-23T00:32:35.248Z,10.90
2022-09-23T00:35:06.060Z,12.17
2022-09-23T00:37:36.045Z,12.43
2022-09-23T00:40:12.404Z,11.17
2022-09-23T00:42:49.487Z,9.60
2022-09-23T00:45:20.496Z,13.33
2022-09-23T00:47:56.705Z,12.53
2022-09-23T00:50:33.879Z,13.57
2022-09-23T00:53:08.095Z,10.50
2022-09-23T00:55:46.445Z,12.70
2022-09-23T00:58:24.661Z,12.83
2022-09-23T01:00:54.673Z,9.47
2022-09-23T01:03:24.726Z,11.33
2022-09-23T01:05:55.868Z,11.03
2022-09-23T01:08:28.421Z,11.63
2022-09-23T01:11:14.441Z,11.13
2022-09-23T01:13:59.587Z,12.83
2022-09-23T01:16:39.256Z,12.47
2022-09-23T01:19:33.846Z,14.47
2022-09-23T01:22:12.451Z,8.30
2022-09-23T01:25:24.747Z,10.90
2022-09-23T01:28:20.583Z,10.07
2022-09-23T01:31:01.247Z,8.50
2022-09-23T01:33:43.207Z,11.27
2022-09-23T01:36:26.653Z,10.20
2022-09-23T01:39:06.421Z,11.10
2022-09-23T01:42:00.091Z,10.63
2022-09-23T01:44:43.058Z,12.33
2022-09-23T01:47:23.474Z,12.27
2022-09-23T01:49:59.753Z,11.50
2022-09-23T01:52:38.101Z,12.80
2022-09-23T01:55:15.421Z,14.10
2022-09-23T01:57:53.449Z,13.10
2022-09-23T02:00:27.893Z,12.00
2022-09-23T02:03:05.506Z,13.73
2022-09-23T02:05:42.262Z,12.47
2022-09-23T02:08:19.369Z,16.00
2022-09-23T02:10:56.174Z,9.20
2022-09-23T02:13:33.590Z,10.97
2022-09-23T02:16:10.501Z,14.43
2022-09-23T02:18:50.325Z,10.63
2022-09-23T02:21:25.229Z,10.73
2022-09-23T02:24:04.246Z,15.20
2022-09-23T02:26:40.846Z,11.50
2022-09-23T02:29:22.266Z,11.63
2022-09-23T02:32:02.670Z,14.00
2022-09-23T02:34:49.212Z,25.67
2022-09-23T02:37:34.909Z,14.87
2022-09-23T02:40:19.127Z,15.47
2022-09-23T02:43:04.871Z,13.47
2022-09-23T02:45:35.669Z,15.40
2022-09-23T02:48:12.415Z,13.70
2022-09-23T02:50:47.765Z,13.30
2022-09-23T02:53:18.513Z,13.07
2022-09-23T02:55:49.383Z,15.13
2022-09-23T02:58:20.041Z,15.80
2022-09-23T03:01:11.085Z,15.20
2022-09-23T03:03:50.010Z,13.10
2022-09-23T03:06:32.260Z,12.30
2022-09-23T03:09:11.465Z,14.47
2022-09-23T03:11:49.784Z,14.80
2022-09-23T03:14:34.314Z,12.77
2022-09-23T03:17:11.348Z,14.53
2022-09-23T03:19:50.716Z,11.40
2022-09-23T03:22:32.823Z,12.90
2022-09-23T03:25:09.628Z,10.70
2022-09-23T03:27:42.858Z,12.83
2022-09-23T03:30:15.666Z,14.60
2022-09-23T03:32:51.214Z,15.33
2022-09-23T03:35:22.512Z,15.63
2022-09-23T03:38:03.278Z,13.40
2022-09-23T03:40:38.503Z,14.37
2022-09-23T03:43:08.729Z,12.20
2022-09-23T03:45:38.831Z,17.23
2022-09-23T03:48:09.091Z,14.83
2022-09-23T03:50:39.307Z,12.30
2022-09-23T03:53:13.999Z,13.07
2022-09-23T03:55:47.191Z,16.50
2022-09-23T03:58:17.894Z,28.33
2022-09-23T04:00:49.514Z,16.37
2022-09-23T04:03:19.471Z,18.30
2022-09-23T04:05:49.438Z,12.50
2022-09-23T04:08:21.970Z,13.73
2022-09-23T04:10:54.848Z,13.50
2022-09-23T04:13:25.395Z,15.40
2022-09-23T04:15:55.593Z,11.40
2022-09-23T04:18:25.715Z,14.90
2022-09-23T04:21:01.506Z,15.37
2022-09-23T04:23:33.989Z,14.87
2022-09-23T04:26:03.892Z,15.60
2022-09-23T04:28:34.302Z,13.63
2022-09-23T04:31:07.727Z,16.10
2022-09-23T04:33:38.465Z,13.33
2022-09-23T04:36:09.150Z,12.53
2022-09-23T04:38:41.999Z,14.37
2022-09-23T04:41:12.228Z,15.03
2022-09-23T04:43:42.730Z,12.53
2022-09-23T04:46:15.845Z,16.00
2022-09-23T04:48:46.129Z,18.03
2022-09-23T04:51:19.387Z,15.07
2022-09-23T04:53:54.985Z,13.87
2022-09-23T04:56:28.086Z,21.70
2022-09-23T04:59:01.697Z,20.83
2022-09-23T05:01:35.179Z,25.47
2022-09-23T05:04:08.658Z,18.87
2022-09-23T05:06:39.544Z,17.67
2022-09-23T05:09:16.643Z,15.07
2022-09-23T05:11:47.387Z,17.80
2022-09-23T05:14:17.365Z,16.67
2022-09-23T05:16:47.308Z,21.27
2022-09-23T05:19:17.279Z,19.63
2022-09-23T05:21:47.208Z,16.97
2022-09-23T05:24:19.873Z,18.87
2022-09-23T05:26:49.794Z,20.33
2022-09-23T05:29:19.786Z,17.27
2022-09-23T05:31:49.836Z,19.77
2022-09-23T05:34:20.055Z,19.73
2022-09-23T05:36:50.239Z,16.33
2022-09-23T05:39:22.783Z,19.80
2022-09-23T05:41:53.886Z,14.90
2022-09-23T05:44:23.925Z,14.10
2022-09-23T05:46:53.881Z,17.40
2022-09-23T05:49:37.673Z,15.00
2022-09-23T05:52:13.871Z,14.77
2022-09-23T05:54:46.344Z,16.90
2022-09-23T05:57:16.317Z,17.47
2022-09-23T05:59:47.763Z,19.43
2022-09-23T06:02:17.839Z,15.00
2022-09-23T06:04:47.777Z,14.03
2022-09-23T06:07:17.771Z,11.50
2022-09-23T06:09:50.581Z,15.70
2022-09-23T06:12:20.685Z,17.23
2022-09-23T06:14:50.778Z,12.63
2022-09-23T06:17:20.847Z,9.90
2022-09-23T06:19:50.735Z,8.77
2022-09-23T06:22:20.673Z,9.60
2022-09-23T06:24:53.170Z,11.17
2022-09-23T06:27:23.205Z,14.37
2022-09-23T06:29:53.489Z,14.50
2022-09-23T06:32:23.515Z,8.93
2022-09-23T06:34:53.713Z,11.00
2022-09-23T06:37:24.327Z,12.40
2022-09-23T06:39:56.961Z,13.40
2022-09-23T06:42:27.010Z,18.03
2022-09-23T06:44:57.102Z,17.60
2022-09-23T06:47:27.189Z,14.10
2022-09-23T06:49:57.280Z,14.50
2022-09-23T06:52:28.736Z,13.10
2022-09-23T06:55:01.502Z,8.00
2022-09-23T06:57:32.936Z,14.53
2022-09-23T07:00:03.324Z,14.27
2022-09-23T07:02:33.435Z,11.10
2022-09-23T07:05:03.955Z,11.00
2022-09-23T07:07:35.982Z,11.10
2022-09-23T07:10:10.553Z,9.90
2022-09-23T07:12:40.938Z,11.27
2022-09-23T07:15:12.731Z,11.97
2022-09-23T07:17:45.530Z,11.93
2022-09-23T07:20:18.004Z,10.33
2022-09-23T07:22:52.245Z,16.83
2022-09-23T07:25:25.874Z,14.87
2022-09-23T07:27:56.159Z,11.10
2022-09-23T07:30:26.170Z,12.33
2022-09-23T07:32:56.419Z,10.40
2022-09-23T07:35:28.183Z,10.27
2022-09-23T07:37:58.262Z,12.07
2022-09-23T07:40:30.932Z,10.77
2022-09-23T07:43:02.133Z,22.93
2022-09-23T07:45:33.287Z,13.77
2022-09-23T07:48:04.261Z,14.87
2022-09-23T07:50:34.249Z,10.97
2022-09-23T07:53:05.182Z,11.50
2022-09-23T07:55:38.152Z,7.97
2022-09-23T07:58:08.078Z,15.80
2022-09-23T08:00:38.024Z,8.27
2022-09-23T08:03:08.836Z,9.40
2022-09-23T08:05:38.864Z,12.43
2022-09-23T08:08:09.719Z,8.17
2022-09-23T08:10:42.788Z,10.27
2022-09-23T08:13:12.768Z,8.00
2022-09-23T08:15:44.356Z,7.80
2022-09-23T08:18:14.396Z,8.83
2022-09-23T08:20:48.079Z,9.10
2022-09-23T08:23:20.050Z,8.30
2022-09-23T08:26:00.143Z,9.10
2022-09-23T08:28:31.544Z,10.10
2022-09-23T08:31:01.665Z,8.90
2022-09-23T08:33:31.874Z,11.10
2022-09-23T08:36:04.856Z,10.83
2022-09-23T08:38:34.951Z,10.37
2022-09-23T08:41:19.971Z,11.30
2022-09-23T08:43:56.146Z,9.50
2022-09-23T08:46:32.608Z,13.47
2022-09-23T08:49:04.024Z,10.60
2022-09-23T08:51:42.204Z,8.80
2022-09-23T08:54:13.857Z,8.60
2022-09-23T08:56:52.302Z,10.10
2022-09-23T08:59:30.713Z,8.33
2022-09-23T09:02:08.248Z,9.33
2022-09-23T09:04:45.732Z,10.87
2022-09-23T09:07:39.163Z,8.90
2022-09-23T09:10:20.420Z,8.70
2022-09-23T09:13:02.848Z,7.87
2022-09-23T09:15:32.978Z,8.40
2022-09-23T09:18:08.023Z,9.80
2022-09-23T09:20:59.040Z,7.53
2022-09-23T09:23:40.990Z,7.63
2022-09-23T09:26:19.259Z,8.63
2022-09-23T09:29:02.551Z,7.97
2022-09-23T09:31:46.206Z,8.80
2022-09-23T09:34:29.586Z,7.60
2022-09-23T09:37:07.710Z,13.73
2022-09-23T09:39:39.059Z,9.13
2022-09-23T09:42:10.507Z,7.63
2022-09-23T09:44:55.495Z,9.03
2022-09-23T09:47:49.551Z,7.30
2022-09-23T09:50:22.665Z,8.20
2022-09-23T09:52:56.243Z,8.40
2022-09-23T09:55:31.623Z,7.30
2022-09-23T09:58:08.165Z,7.60
2022-09-23T10:00:46.186Z,7.50
2022-09-23T10:03:37.062Z,8.93
2022-09-23T10:06:19.829Z,7.20
2022-09-23T10:09:14.217Z,6.13
2022-09-23T10:11:44.994Z,8.47
2022-09-23T10:14:19.723Z,8.10
2022-09-23T10:17:07.019Z,7.00
2022-09-23T10:19:41.306Z,6.47
2022-09-23T10:22:24.039Z,6.30
2022-09-23T10:24:57.889Z,7.93
2022-09-23T10:27:34.622Z,11.70
2022-09-23T10:30:07.163Z,5.70
2022-09-23T10:32:46.756Z,6.60
2022-09-23T10:35:21.866Z,8.30
2022-09-23T10:37:55.912Z,7.90
2022-09-23T10:40:47.069Z,8.23
2022-09-23T10:43:39.906Z,10.40
2022-09-23T10:46:32.372Z,9.23
2022-09-23T10:49:43.269Z,6.00
2022-09-23T10:52:41.212Z,7.00
2022-09-23T10:55:36.617Z,9.73
2022-09-23T10:58:30.668Z,12.00
2022-09-23T11:01:21.155Z,6.77
2022-09-23T11:04:38.967Z,7.30
2022-09-23T11:07:25.140Z,5.67
2022-09-23T11:10:47.923Z,6.10
2022-09-23T11:16:58.141Z,7.00
2022-09-23T11:19:56.998Z,7.97
2022-09-23T11:22:53.288Z,8.80
2022-09-23T11:25:46.698Z,9.03
2022-09-23T11:28:50.685Z,14.57
2022-09-23T11:31:39.931Z,7.50
2022-09-23T11:34:38.766Z,6.43
2022-09-23T11:37:15.386Z,9.53
2022-09-23T11:39:50.425Z,6.50
2022-09-23T11:42:28.928Z,7.30
2022-09-23T11:45:05.044Z,6.20
2022-09-23T11:47:46.871Z,8.57
2022-09-23T11:53:10.717Z,17.97
2022-09-23T11:55:57.337Z,5.17
2022-09-23T11:59:36.795Z,11.07
2022-09-23T12:08:25.069Z,6.97
2022-09-23T12:11:08.744Z,5.70
2022-09-23T12:17:07.160Z,9.33
2022-09-23T12:20:13.243Z,6.07
2022-09-23T12:23:04.795Z,7.33
2022-09-23T12:28:26.634Z,7.47
2022-09-23T12:31:01.704Z,8.53
2022-09-23T12:36:15.479Z,7.70
2022-09-23T12:41:51.858Z,7.33
2022-09-23T12:44:37.672Z,9.50
2022-09-23T12:47:42.661Z,9.17
2022-09-23T12:50:55.188Z,10.87
2022-09-23T12:54:01.848Z,7.40
2022-09-23T12:57:12.252Z,5.40
2022-09-23T13:00:16.220Z,11.00
2022-09-23T13:03:10.088Z,8.20
2022-09-23T13:11:25.495Z,5.80
2022-09-23T13:13:59.735Z,7.13
2022-09-23T13:16:37.047Z,6.97
2022-09-23T13:22:11.193Z,7.90
2022-09-23T13:24:46.031Z,8.87
2022-09-23T13:30:27.053Z,9.80
2022-09-23T13:33:08.890Z,5.93
2022-09-23T13:35:45.437Z,6.60
2022-09-23T13:38:26.276Z,7.70
2022-09-23T13:43:46.304Z,6.87
2022-09-23T13:48:59.427Z,8.73
2022-09-23T13:51:33.203Z,7.77
2022-09-23T13:54:07.242Z,6.60
2022-09-23T13:56:38.017Z,6.33
2022-09-23T14:02:16.901Z,6.70
2022-09-23T14:04:47.497Z,7.50
2022-09-23T14:07:21.594Z,7.70
2022-09-23T14:09:54.960Z,6.80
2022-09-23T14:12:25.460Z,10.93
2022-09-23T14:14:56.361Z,8.27
2022-09-23T14:17:29.627Z,8.40
2022-09-23T14:19:59.713Z,6.40
2022-09-23T14:22:32.550Z,7.93
2022-09-23T14:25:03.440Z,6.23
2022-09-23T14:27:37.497Z,6.07
2022-09-23T14:30:09.713Z,6.30
2022-09-23T14:35:29.753Z,6.30
2022-09-23T14:41:14.666Z,7.50
2022-09-23T14:47:09.026Z,9.37
2022-09-23T14:50:02.264Z,8.23
2022-09-23T14:52:32.350Z,7.90
2022-09-23T14:55:03.846Z,8.17
2022-09-23T14:57:34.414Z,6.03
2022-09-23T15:00:18.691Z,6.23
2022-09-23T15:05:50.926Z,9.30
2022-09-23T15:11:08.361Z,10.10
2022-09-23T15:13:44.549Z,12.20
2022-09-23T15:16:18.000Z,11.30
2022-09-23T15:18:57.396Z,12.13
2022-09-23T15:24:42.800Z,6.90
2022-09-23T15:27:40.893Z,12.40
2022-09-23T15:30:19.327Z,9.13
2022-09-23T15:32:50.310Z,12.20
2022-09-23T15:35:25.687Z,10.13
2022-09-23T15:38:02.779Z,7.47
2022-09-23T15:40:40.513Z,10.30
2022-09-23T15:43:21.417Z,9.10
2022-09-23T15:45:55.944Z,10.17
2022-09-23T15:51:12.706Z,8.00
2022-09-23T15:56:27.405Z,14.90
2022-09-23T15:58:57.411Z,7.47
2022-09-23T16:01:31.523Z,7.57
2022-09-23T16:04:03.634Z,7.20
2022-09-23T16:06:36.088Z,9.20
2022-09-23T16:09:06.645Z,6.80
2022-09-23T16:11:39.688Z,7.10
2022-09-23T16:14:12.275Z,6.97
2022-09-23T16:16:42.462Z,13.27
2022-09-23T16:19:12.713Z,9.73
2022-09-23T16:21:44.833Z,6.33
2022-09-23T16:24:22.531Z,12.07
2022-09-23T16:27:00.766Z,9.73
2022-09-23T16:29:30.746Z,7.80
2022-09-23T16:34:45.153Z,8.63
2022-09-23T16:37:19.507Z,9.43
2022-09-23T16:39:51.583Z,9.17
2022-09-23T16:42:22.347Z,8.00
2022-09-23T16:44:52.439Z,14.90
2022-09-23T16:47:22.831Z,10.03
2022-09-23T16:49:55.424Z,9.57
2022-09-23T16:52:25.376Z,11.53
2022-09-23T16:54:55.388Z,8.37
2022-09-23T16:57:25.373Z,7.97
2022-09-23T17:00:07.961Z,6.93
2022-09-23T17:05:20.362Z,12.00
2022-09-23T17:07:50.327Z,13.13
2022-09-23T17:10:21.474Z,8.73
2022-09-23T17:12:52.595Z,15.10
2022-09-23T17:15:22.655Z,15.60
2022-09-23T17:17:52.626Z,9.63
2022-09-23T17:20:25.089Z,9.60
2022-09-23T17:22:56.623Z,9.50
2022-09-23T17:25:26.573Z,8.90
2022-09-23T17:27:57.855Z,10.90
2022-09-23T17:30:28.816Z,13.00
2022-09-23T17:32:58.777Z,13.23
2022-09-23T17:35:31.278Z,9.57
2022-09-23T17:38:01.218Z,9.30
2022-09-23T17:40:31.334Z,13.10
2022-09-23T17:43:01.613Z,35.40
2022-09-23T17:45:31.613Z,9.43
2022-09-23T17:48:01.722Z,14.97
2022-09-23T17:50:34.227Z,18.53
2022-09-23T17:53:05.208Z,14.47
2022-09-23T17:55:35.164Z,16.77
2022-09-23T17:58:05.238Z,9.90
2022-09-23T18:00:35.281Z,9.83
2022-09-23T18:03:05.272Z,11.57
2022-09-23T18:05:37.769Z,13.80
2022-09-23T18:08:07.990Z,18.13
2022-09-23T18:10:37.990Z,14.80
2022-09-23T18:13:08.092Z,14.00
2022-09-23T18:15:39.313Z,13.73
2022-09-23T18:18:09.919Z,9.37
2022-09-23T18:20:42.439Z,8.40
2022-09-23T18:23:13.639Z,11.90
2022-09-23T18:25:43.749Z,9.77
2022-09-23T18:28:13.627Z,13.00
2022-09-23T18:30:43.615Z,12.83
2022-09-23T18:33:15.302Z,10.23
2022-09-23T18:35:47.934Z,7.57
2022-09-23T18:38:18.135Z,15.03
2022-09-23T18:40:56.862Z,11.00
2022-09-23T18:43:33.005Z,11.67
2022-09-23T18:51:29.192Z,11.23
2022-09-23T18:54:00.237Z,9.80
2022-09-23T18:56:34.458Z,11.40
2022-09-23T18:59:05.707Z,11.13
2022-09-23T19:01:36.506Z,10.90
2022-09-23T19:04:07.677Z,12.77
2022-09-23T19:06:40.264Z,11.27
2022-09-23T19:09:12.059Z,10.13
2022-09-23T19:11:42.188Z,19.20
2022-09-23T19:14:14.508Z,12.30
2022-09-23T19:17:00.137Z,13.23
2022-09-23T19:19:30.131Z,18.33
2022-09-23T19:22:19.107Z,13.93
2022-09-23T19:27:31.221Z,18.17
2022-09-23T19:30:01.686Z,19.23
2022-09-23T19:35:16.283Z,14.90
2022-09-23T19:37:46.249Z,17.73
2022-09-23T19:40:16.517Z,14.17
2022-09-23T19:42:46.683Z,13.60
2022-09-23T19:45:17.324Z,12.03
2022-09-23T19:47:47.321Z,10.73
2022-09-23T19:50:21.801Z,16.43
2022-09-23T19:52:52.145Z,15.43
2022-09-23T19:55:22.699Z,17.30
2022-09-23T19:57:52.620Z,16.97
2022-09-23T20:00:23.686Z,14.20
2022-09-23T20:02:53.713Z,16.00
2022-09-23T20:05:28.459Z,17.57
2022-09-23T20:07:59.066Z,19.37
2022-09-23T20:10:29.163Z,19.10
2022-09-23T20:12:59.510Z,16.27
2022-09-23T20:15:29.633Z,12.73
2022-09-23T20:17:59.576Z,15.27
2022-09-23T20:20:32.434Z,19.83
2022-09-23T20:23:02.332Z,17.07
2022-09-23T20:28:39.380Z,17.60
2022-09-23T20:31:09.371Z,19.47
2022-09-23T20:33:41.543Z,18.13
2022-09-23T20:36:13.192Z,16.50
2022-09-23T20:38:43.268Z,19.67
2022-09-23T20:41:14.673Z,16.97
2022-09-23T20:43:48.250Z,18.33
2022-09-23T20:46:18.201Z,20.50
2022-09-23T20:48:49.809Z,22.70
2022-09-23T20:51:20.485Z,20.33
2022-09-23T20:53:51.982Z,23.77
2022-09-23T20:56:22.602Z,25.70
2022-09-23T20:58:55.333Z,19.83
2022-09-23T21:01:27.273Z,19.93
2022-09-23T21:03:57.370Z,17.97
2022-09-23T21:06:27.834Z,21.97
2022-09-23T21:08:58.028Z,25.33
2022-09-23T21:11:29.193Z,20.50
2022-09-23T21:14:02.171Z,24.20
2022-09-23T21:16:33.069Z,22.73
2022-09-23T21:19:03.286Z,20.50
2022-09-23T21:21:33.327Z,19.63
2022-09-23T21:24:33.080Z,20.03
2022-09-23T21:26:54.471Z,22.83
2022-09-23T21:29:27.731Z,21.37
2022-09-23T21:34:52.621Z,29.90
2022-09-23T21:37:22.543Z,36.97
2022-09-23T21:40:13.223Z,26.13
2022-09-23T21:42:43.234Z,30.70
2022-09-23T21:45:14.138Z,26.60
2022-09-23T21:47:44.230Z,24.70
2022-09-23T21:50:17.246Z,27.60
2022-09-23T21:52:52.349Z,25.57
2022-09-23T21:55:22.309Z,20.50
2022-09-23T21:57:52.285Z,23.03
2022-09-23T22:00:23.549Z,19.73
2022-09-23T22:02:54.171Z,18.57
2022-09-23T22:05:26.915Z,30.80
2022-09-23T22:07:56.861Z,26.80
2022-09-23T22:10:26.827Z,25.63
2022-09-23T22:12:56.828Z,36.57
2022-09-23T22:15:26.841Z,21.50
2022-09-23T22:17:57.588Z,26.03
2022-09-23T22:20:31.242Z,21.53
2022-09-23T22:23:01.565Z,21.07
2022-09-23T22:25:33.251Z,23.03
2022-09-23T22:31:16.063Z,24.00
2022-09-23T22:33:46.084Z,23.60
2022-09-23T22:36:16.055Z,25.47
2022-09-23T22:38:45.948Z,20.70
2022-09-23T22:41:16.168Z,26.23
2022-09-23T22:43:46.348Z,22.20
2022-09-23T22:46:21.947Z,25.77
2022-09-23T22:48:53.447Z,22.17
2022-09-23T22:51:24.435Z,21.87
2022-09-23T22:53:55.923Z,19.57
2022-09-23T22:56:25.946Z,20.43
2022-09-23T22:58:56.947Z,22.30
2022-09-23T23:01:30.027Z,24.23
2022-09-23T23:04:01.801Z,25.40
2022-09-23T23:06:35.978Z,27.20
2022-09-23T23:09:09.983Z,30.63
2022-09-23T23:11:42.460Z,24.60
2022-09-23T23:14:13.508Z,24.97
2022-09-23T23:16:47.243Z,25.33
2022-09-23T23:19:19.561Z,26.93
2022-09-23T23:21:49.561Z,25.30
2022-09-23T23:24:23.483Z,28.63
2022-09-23T23:26:54.977Z,22.87
2022-09-23T23:29:26.021Z,23.13
2022-09-23T23:31:58.576Z,27.53
2022-09-23T23:34:28.579Z,21.87
2022-09-23T23:36:58.574Z,21.97
2022-09-23T23:39:29.233Z,25.83
2022-09-23T23:42:01.036Z,25.77
2022-09-23T23:44:31.169Z,24.43
2022-09-23T23:47:04.590Z,25.97
2022-09-23T23:49:34.646Z,27.50
2022-09-23T23:52:05.147Z,25.40
2022-09-23T23:54:35.259Z,24.07
2022-09-23T23:57:05.207Z,21.73
2022-09-23T23:59:35.174Z,21.90
